createdAt,value
2018-05-21T00:01:55.200Z,17.30
2018-05-21T00:04:23.443Z,17.30
2018-05-21T00:06:50.942Z,17.30
2018-05-21T00:09:19.241Z,17.30
2018-05-21T00:11:46.708Z,17.30
2018-05-21T00:14:14.191Z,17.20
2018-05-21T00:16:41.671Z,17.30
2018-05-21T00:19:09.169Z,17.30
2018-05-21T00:21:36.635Z,17.30
2018-05-21T00:24:04.246Z,17.30
2018-05-21T00:26:31.733Z,17.20
2018-05-21T00:28:59.976Z,17.20
2018-05-21T00:31:27.437Z,17.20
2018-05-21T00:33:55.687Z,17.00
2018-05-21T00:36:23.163Z,17.00
2018-05-21T00:38:50.642Z,17.00
2018-05-21T00:41:18.887Z,16.90
2018-05-21T00:43:46.357Z,16.90
2018-05-21T00:46:14.600Z,16.90
2018-05-21T00:48:42.157Z,16.90
2018-05-21T00:51:09.641Z,17.00
2018-05-21T00:53:37.124Z,17.00
2018-05-21T00:56:05.732Z,16.90
2018-05-21T00:58:33.213Z,16.90
2018-05-21T01:01:00.692Z,16.80
2018-05-21T01:03:28.153Z,16.80
2018-05-21T01:05:55.638Z,16.70
2018-05-21T01:08:23.867Z,16.60
2018-05-21T01:10:51.357Z,16.60
2018-05-21T01:13:18.993Z,16.50
2018-05-21T01:15:46.560Z,16.50
2018-05-21T01:18:14.706Z,16.50
2018-05-21T01:20:42.167Z,16.40
2018-05-21T01:23:09.649Z,16.40
2018-05-21T01:25:37.892Z,16.40
2018-05-21T01:28:05.629Z,16.40
2018-05-21T01:30:33.220Z,16.40
2018-05-21T01:33:00.701Z,16.40
2018-05-21T01:35:28.176Z,16.30
2018-05-21T01:37:56.414Z,16.20
2018-05-21T01:40:23.880Z,16.20
2018-05-21T01:42:51.358Z,16.30
2018-05-21T01:45:18.843Z,16.40
2018-05-21T01:47:47.087Z,16.30
2018-05-21T01:50:14.553Z,16.30
2018-05-21T01:52:42.033Z,16.20
2018-05-21T01:55:10.281Z,16.20
2018-05-21T01:57:37.760Z,16.10
2018-05-21T02:00:06.223Z,15.90
2018-05-21T02:02:33.709Z,15.90
2018-05-21T02:05:01.928Z,16.00
2018-05-21T02:07:29.410Z,15.90
2018-05-21T02:09:56.859Z,16.00
2018-05-21T02:12:24.425Z,16.00
2018-05-21T02:14:51.883Z,15.90
2018-05-21T02:17:19.349Z,15.90
2018-05-21T02:19:47.596Z,15.90
2018-05-21T02:22:15.059Z,15.90
2018-05-21T02:24:42.544Z,15.90
2018-05-21T02:27:10.783Z,15.90
2018-05-21T02:29:38.268Z,15.80
2018-05-21T02:32:06.836Z,15.80
2018-05-21T02:34:34.317Z,15.80
2018-05-21T02:37:02.785Z,15.80
2018-05-21T02:39:30.268Z,15.70
2018-05-21T02:41:57.728Z,15.70
2018-05-21T02:44:25.218Z,15.70
2018-05-21T02:46:52.688Z,15.70
2018-05-21T02:49:20.167Z,15.60
2018-05-21T02:51:48.412Z,15.50
2018-05-21T02:54:15.873Z,15.40
2018-05-21T02:56:43.348Z,15.40
2018-05-21T02:59:11.584Z,15.40
2018-05-21T03:01:39.054Z,15.40
2018-05-21T03:04:06.546Z,15.40
2018-05-21T03:06:35.514Z,15.40
2018-05-21T03:09:02.996Z,15.40
2018-05-21T03:11:30.487Z,15.40
2018-05-21T03:13:57.945Z,15.30
2018-05-21T03:16:25.435Z,15.40
2018-05-21T03:18:52.901Z,15.30
2018-05-21T03:21:20.381Z,15.30
2018-05-21T03:23:47.839Z,15.30
2018-05-21T03:26:15.336Z,15.30
2018-05-21T03:28:42.803Z,15.20
2018-05-21T03:31:10.280Z,15.10
2018-05-21T03:33:37.758Z,15.20
2018-05-21T03:36:05.240Z,15.20
2018-05-21T03:38:33.474Z,15.20
2018-05-21T03:41:00.993Z,15.20
2018-05-21T03:43:28.415Z,15.20
2018-05-21T03:45:55.909Z,15.20
2018-05-21T03:48:23.376Z,15.20
2018-05-21T03:50:50.839Z,15.30
2018-05-21T03:53:18.325Z,15.30
2018-05-21T03:55:45.788Z,15.30
2018-05-21T03:58:25.345Z,15.20
2018-05-21T04:01:04.472Z,15.30
2018-05-21T04:06:34.975Z,15.50
2018-05-21T04:09:02.469Z,15.40
2018-05-21T04:11:29.940Z,15.50
2018-05-21T04:13:58.182Z,15.40
2018-05-21T04:16:25.863Z,15.40
2018-05-21T04:18:53.451Z,15.40
2018-05-21T04:21:21.571Z,15.50
2018-05-21T04:23:49.053Z,15.50
2018-05-21T04:26:16.519Z,15.60
2018-05-21T04:28:44.763Z,15.60
2018-05-21T04:31:12.224Z,15.60
2018-05-21T04:33:39.720Z,15.70
2018-05-21T04:36:07.955Z,15.90
2018-05-21T04:38:35.441Z,15.80
2018-05-21T04:41:02.908Z,15.90
2018-05-21T04:43:31.143Z,15.90
2018-05-21T04:45:58.604Z,15.80
2018-05-21T04:48:26.080Z,15.90
2018-05-21T04:50:53.564Z,15.90
2018-05-21T04:53:21.791Z,15.80
2018-05-21T04:55:49.270Z,15.80
2018-05-21T04:58:18.369Z,15.90
2018-05-21T05:00:45.856Z,15.90
2018-05-21T05:03:13.334Z,16.00
2018-05-21T05:05:40.823Z,16.20
2018-05-21T05:08:08.341Z,16.20
2018-05-21T05:10:36.065Z,16.20
2018-05-21T05:13:03.537Z,16.20
2018-05-21T05:15:31.785Z,16.30
2018-05-21T05:18:00.762Z,16.30
2018-05-21T05:20:28.270Z,16.30
2018-05-21T05:22:56.503Z,16.40
2018-05-21T05:25:24.752Z,16.50
2018-05-21T05:27:52.225Z,16.50
2018-05-21T05:30:19.693Z,16.50
2018-05-21T05:32:47.244Z,16.50
2018-05-21T05:35:14.710Z,16.50
2018-05-21T05:37:42.198Z,16.60
2018-05-21T05:40:10.426Z,16.70
2018-05-21T05:42:37.896Z,16.70
2018-05-21T05:45:05.378Z,16.70
2018-05-21T05:47:32.841Z,16.80
2018-05-21T05:50:01.077Z,16.90
2018-05-21T05:52:28.560Z,16.90
2018-05-21T05:54:56.020Z,16.90
2018-05-21T05:57:23.501Z,16.90
2018-05-21T05:59:51.734Z,17.10
2018-05-21T06:02:19.410Z,17.00
2018-05-21T06:04:46.869Z,17.10
2018-05-21T06:07:15.112Z,17.30
2018-05-21T06:09:42.588Z,17.30
2018-05-21T06:12:10.061Z,17.40
2018-05-21T06:14:38.344Z,17.50
2018-05-21T06:17:06.583Z,17.50
2018-05-21T06:19:34.053Z,17.50
2018-05-21T06:22:01.521Z,17.70
2018-05-21T06:24:29.112Z,17.70
2018-05-21T06:26:56.700Z,17.70
2018-05-21T06:29:24.246Z,17.70
2018-05-21T06:31:51.726Z,17.60
2018-05-21T06:34:19.293Z,17.70
2018-05-21T06:36:46.677Z,17.70
2018-05-21T06:39:14.162Z,17.70
2018-05-21T06:41:41.664Z,17.80
2018-05-21T06:44:09.150Z,17.70
2018-05-21T06:46:37.800Z,17.80
2018-05-21T06:49:05.290Z,17.80
2018-05-21T06:51:33.626Z,17.90
2018-05-21T06:54:01.107Z,18.00
2018-05-21T06:56:28.640Z,18.10
2018-05-21T06:58:56.164Z,18.10
2018-05-21T07:01:24.421Z,18.20
2018-05-21T07:03:52.706Z,18.20
2018-05-21T07:06:20.956Z,18.20
2018-05-21T07:08:48.440Z,18.20
2018-05-21T07:11:16.724Z,18.40
2018-05-21T07:13:44.208Z,18.40
2018-05-21T07:16:11.716Z,18.60
2018-05-21T07:18:39.329Z,18.80
2018-05-21T07:21:06.849Z,19.00
2018-05-21T07:23:35.118Z,19.40
2018-05-21T07:26:02.627Z,19.30
2018-05-21T07:28:30.230Z,19.40
2018-05-21T07:30:57.702Z,19.40
2018-05-21T07:33:25.987Z,19.70
2018-05-21T07:35:54.247Z,19.70
2018-05-21T07:38:22.513Z,19.80
2018-05-21T07:40:50.023Z,19.80
2018-05-21T07:43:17.523Z,19.80
2018-05-21T07:45:45.024Z,19.80
2018-05-21T07:48:13.272Z,20.20
2018-05-21T07:50:41.548Z,20.30
2018-05-21T07:53:09.037Z,20.30
2018-05-21T07:55:36.521Z,20.40
2018-05-21T07:58:04.006Z,20.60
2018-05-21T08:00:31.475Z,20.50
2018-05-21T08:02:59.725Z,20.70
2018-05-21T08:05:27.188Z,20.70
2018-05-21T08:07:55.467Z,21.10
2018-05-21T08:10:22.940Z,21.00
2018-05-21T08:12:50.411Z,21.20
2018-05-21T08:15:18.640Z,21.40
2018-05-21T08:17:46.447Z,21.40
2018-05-21T08:20:14.722Z,21.50
2018-05-21T08:22:42.369Z,21.50
2018-05-21T08:25:09.841Z,21.40
2018-05-21T08:27:38.101Z,21.70
2018-05-21T08:30:05.617Z,21.60
2018-05-21T08:32:33.102Z,21.80
2018-05-21T08:35:00.632Z,21.70
2018-05-21T08:37:28.113Z,21.60
2018-05-21T08:39:55.700Z,21.60
2018-05-21T08:42:23.221Z,21.50
2018-05-21T08:44:50.764Z,21.50
2018-05-21T08:47:18.551Z,21.80
2018-05-21T08:49:46.044Z,22.00
2018-05-21T08:52:14.370Z,22.30
2018-05-21T08:54:42.601Z,22.40
2018-05-21T08:57:10.857Z,22.50
2018-05-21T08:59:38.344Z,22.50
2018-05-21T09:02:06.600Z,22.90
2018-05-21T09:04:34.995Z,23.00
2018-05-21T09:07:02.415Z,22.90
2018-05-21T09:09:29.908Z,22.90
2018-05-21T09:11:57.396Z,23.00
2018-05-21T09:14:24.963Z,23.20
2018-05-21T09:16:52.469Z,23.20
2018-05-21T09:19:20.391Z,23.30
2018-05-21T09:21:47.905Z,23.50
2018-05-21T09:24:15.403Z,23.40
2018-05-21T09:26:42.900Z,23.60
2018-05-21T09:29:10.364Z,23.70
2018-05-21T09:31:37.878Z,23.80
2018-05-21T09:34:05.498Z,23.80
2018-05-21T09:36:33.748Z,23.60
2018-05-21T09:39:01.243Z,23.60
2018-05-21T09:41:28.796Z,23.60
2018-05-21T09:43:56.301Z,23.70
2018-05-21T09:46:23.808Z,23.90
2018-05-21T09:48:52.057Z,24.00
2018-05-21T09:51:19.997Z,24.00
2018-05-21T09:53:47.520Z,24.20
2018-05-21T09:56:15.042Z,24.10
2018-05-21T09:58:42.528Z,23.90
2018-05-21T10:01:10.008Z,23.80
2018-05-21T10:03:37.495Z,23.90
2018-05-21T10:06:04.976Z,24.10
2018-05-21T10:08:33.235Z,24.30
2018-05-21T10:11:00.709Z,24.30
2018-05-21T10:13:28.212Z,24.40
2018-05-21T10:15:55.701Z,24.30
2018-05-21T10:18:23.190Z,24.20
2018-05-21T10:20:51.464Z,24.10
2018-05-21T10:23:20.841Z,24.20
2018-05-21T10:25:48.355Z,24.10
2018-05-21T10:28:15.907Z,24.10
2018-05-21T10:30:43.410Z,24.20
2018-05-21T10:33:10.923Z,24.30
2018-05-21T10:35:38.386Z,24.40
2018-05-21T10:38:05.880Z,24.60
2018-05-21T10:40:33.358Z,24.50
2018-05-21T10:43:00.828Z,24.40
2018-05-21T10:45:29.072Z,24.30
2018-05-21T10:47:56.569Z,24.30
2018-05-21T10:50:24.800Z,24.80
2018-05-21T10:52:52.283Z,24.80
2018-05-21T10:55:19.747Z,25.10
2018-05-21T10:57:48.235Z,25.50
2018-05-21T11:00:16.484Z,25.70
2018-05-21T11:02:43.964Z,25.60
2018-05-21T11:05:12.200Z,25.70
2018-05-21T11:07:39.686Z,25.70
2018-05-21T11:10:07.943Z,25.80
2018-05-21T11:12:35.433Z,25.80
2018-05-21T11:15:03.689Z,25.80
2018-05-21T11:17:31.161Z,25.70
2018-05-21T11:20:00.164Z,25.90
2018-05-21T11:22:28.557Z,25.70
2018-05-21T11:24:56.033Z,25.70
2018-05-21T11:27:23.958Z,25.70
2018-05-21T11:29:52.200Z,25.80
2018-05-21T11:32:19.683Z,25.80
2018-05-21T11:34:47.153Z,26.10
2018-05-21T11:37:15.455Z,26.00
2018-05-21T11:39:42.971Z,26.00
2018-05-21T11:42:10.460Z,26.00
2018-05-21T11:44:37.951Z,26.10
2018-05-21T11:47:05.442Z,26.10
2018-05-21T11:49:32.924Z,26.10
2018-05-21T11:52:01.211Z,26.10
2018-05-21T11:54:29.463Z,26.40
2018-05-21T11:56:58.163Z,26.50
2018-05-21T11:59:26.420Z,26.50
2018-05-21T12:01:53.984Z,26.40
2018-05-21T12:04:21.395Z,26.70
2018-05-21T12:06:48.921Z,26.80
2018-05-21T12:09:16.475Z,26.80
2018-05-21T12:11:44.712Z,26.70
2018-05-21T12:14:12.193Z,26.70
2018-05-21T12:16:39.692Z,27.00
2018-05-21T12:19:07.161Z,27.30
2018-05-21T12:21:34.661Z,27.80
2018-05-21T12:24:02.914Z,27.90
2018-05-21T12:26:30.401Z,27.90
2018-05-21T12:28:58.661Z,27.60
2018-05-21T12:31:26.253Z,27.60
2018-05-21T12:33:53.788Z,27.80
2018-05-21T12:36:21.291Z,27.80
2018-05-21T12:38:48.782Z,27.80
2018-05-21T12:41:16.282Z,27.70
2018-05-21T12:43:43.842Z,27.80
2018-05-21T12:46:11.376Z,28.10
2018-05-21T12:48:39.642Z,28.10
2018-05-21T12:51:07.168Z,28.10
2018-05-21T12:53:34.673Z,27.90
2018-05-21T12:56:02.156Z,27.60
2018-05-21T12:58:29.649Z,27.50
2018-05-21T13:00:57.125Z,27.30
2018-05-21T13:03:24.606Z,27.10
2018-05-21T13:05:52.887Z,27.00
2018-05-21T13:08:21.237Z,27.10
2018-05-21T13:10:48.764Z,27.10
2018-05-21T13:13:16.258Z,27.10
2018-05-21T13:15:43.776Z,27.20
2018-05-21T13:18:11.230Z,27.30
2018-05-21T13:20:38.757Z,27.30
2018-05-21T13:23:07.071Z,26.80
2018-05-21T13:25:34.579Z,26.70
2018-05-21T13:28:02.918Z,26.90
2018-05-21T13:30:30.388Z,26.90
2018-05-21T13:32:57.886Z,26.80
2018-05-21T13:35:26.144Z,26.90
2018-05-21T13:37:54.388Z,26.80
2018-05-21T13:40:21.846Z,26.70
2018-05-21T13:42:49.475Z,26.80
2018-05-21T13:45:16.943Z,26.50
2018-05-21T13:47:44.444Z,26.50
2018-05-21T13:50:11.916Z,26.50
2018-05-21T13:52:40.188Z,27.00
2018-05-21T13:55:08.454Z,27.20
2018-05-21T13:57:37.042Z,27.50
2018-05-21T14:00:05.357Z,27.70
2018-05-21T14:02:32.864Z,27.70
2018-05-21T14:05:00.408Z,27.50
2018-05-21T14:07:27.924Z,27.30
2018-05-21T14:09:55.510Z,26.90
2018-05-21T14:12:23.006Z,26.90
2018-05-21T14:14:50.499Z,27.00
2018-05-21T14:17:18.084Z,27.20
2018-05-21T14:19:45.596Z,27.10
2018-05-21T14:22:14.833Z,26.80
2018-05-21T14:24:43.222Z,26.70
2018-05-21T14:27:10.784Z,27.00
2018-05-21T14:29:38.429Z,27.10
2018-05-21T14:32:06.590Z,27.20
2018-05-21T14:34:36.797Z,27.10
2018-05-21T14:37:04.326Z,27.10
2018-05-21T14:39:32.716Z,27.00
2018-05-21T14:42:00.206Z,27.00
2018-05-21T14:44:27.725Z,27.00
2018-05-21T14:46:55.207Z,26.90
2018-05-21T14:49:23.523Z,26.60
2018-05-21T14:51:51.004Z,26.60
2018-05-21T14:54:18.485Z,26.70
2018-05-21T14:56:46.743Z,26.50
2018-05-21T14:59:14.216Z,26.50
2018-05-21T15:01:42.494Z,26.50
2018-05-21T15:04:10.748Z,26.30
2018-05-21T15:06:38.219Z,26.30
2018-05-21T15:09:05.691Z,26.30
2018-05-21T15:11:34.021Z,26.10
2018-05-21T15:14:01.491Z,26.10
2018-05-21T15:16:29.121Z,26.00
2018-05-21T15:18:56.806Z,25.90
2018-05-21T15:21:24.374Z,25.80
2018-05-21T15:23:51.859Z,25.80
2018-05-21T15:26:20.109Z,25.80
2018-05-21T15:28:48.424Z,25.80
2018-05-21T15:31:15.955Z,25.80
2018-05-21T15:33:43.492Z,25.90
2018-05-21T15:36:11.220Z,25.90
2018-05-21T15:38:38.681Z,25.90
2018-05-21T15:41:06.169Z,25.90
2018-05-21T15:43:33.784Z,25.80
2018-05-21T15:46:02.442Z,25.80
2018-05-21T15:48:30.034Z,25.80
2018-05-21T15:50:57.476Z,25.80
2018-05-21T15:53:25.760Z,25.90
2018-05-21T15:55:53.260Z,25.90
2018-05-21T15:58:20.772Z,25.90
2018-05-21T16:00:48.430Z,25.90
2018-05-21T16:03:16.048Z,25.80
2018-05-21T16:05:43.573Z,25.70
2018-05-21T16:08:11.120Z,25.70
2018-05-21T16:10:38.641Z,25.80
2018-05-21T16:13:06.125Z,25.80
2018-05-21T16:15:33.633Z,25.80
2018-05-21T16:18:01.228Z,25.90
2018-05-21T16:20:29.530Z,25.80
2018-05-21T16:22:57.091Z,25.80
2018-05-21T16:25:24.615Z,25.70
2018-05-21T16:27:52.085Z,25.70
2018-05-21T16:30:20.358Z,25.70
2018-05-21T16:32:48.692Z,25.60
2018-05-21T16:35:16.201Z,25.60
2018-05-21T16:37:44.482Z,25.80
2018-05-21T16:40:12.750Z,25.80
2018-05-21T16:42:40.224Z,25.80
2018-05-21T16:45:08.012Z,25.90
2018-05-21T16:47:35.505Z,25.70
2018-05-21T16:50:03.000Z,25.70
2018-05-21T16:52:30.850Z,25.70
2018-05-21T16:54:58.367Z,25.60
2018-05-21T16:57:25.858Z,25.70
2018-05-21T16:59:53.329Z,25.70
2018-05-21T17:02:21.589Z,25.60
2018-05-21T17:04:49.938Z,25.60
2018-05-21T17:07:17.488Z,25.60
2018-05-21T17:09:45.738Z,25.70
2018-05-21T17:12:13.234Z,25.70
2018-05-21T17:14:40.772Z,25.70
2018-05-21T17:17:08.272Z,25.60
2018-05-21T17:19:36.549Z,25.60
2018-05-21T17:22:04.827Z,25.60
2018-05-21T17:24:32.342Z,25.60
2018-05-21T17:26:59.830Z,25.60
2018-05-21T17:29:27.389Z,25.50
2018-05-21T17:31:54.973Z,25.50
2018-05-21T17:34:23.231Z,25.30
2018-05-21T17:36:51.528Z,25.20
2018-05-21T17:39:19.900Z,25.20
2018-05-21T17:41:48.167Z,25.10
2018-05-21T17:44:16.434Z,25.00
2018-05-21T17:46:44.121Z,25.00
2018-05-21T17:49:11.667Z,24.90
2018-05-21T17:51:39.442Z,24.90
2018-05-21T17:54:06.900Z,24.80
2018-05-21T17:56:35.201Z,24.80
2018-05-21T17:59:02.696Z,24.70
2018-05-21T18:01:31.031Z,24.60
2018-05-21T18:03:58.523Z,24.60
2018-05-21T18:06:26.021Z,24.60
2018-05-21T18:08:54.307Z,24.50
2018-05-21T18:11:22.055Z,24.50
2018-05-21T18:13:50.352Z,24.40
2018-05-21T18:16:17.852Z,24.40
2018-05-21T18:18:45.466Z,24.40
2018-05-21T18:21:12.963Z,24.30
2018-05-21T18:23:40.462Z,24.30
2018-05-21T18:26:07.968Z,24.30
2018-05-21T18:28:39.565Z,24.20
2018-05-21T18:31:07.100Z,24.20
2018-05-21T18:33:34.588Z,24.10
2018-05-21T18:36:02.285Z,24.10
2018-05-21T18:38:29.705Z,24.10
2018-05-21T18:40:58.004Z,24.10
2018-05-21T18:43:26.263Z,24.10
2018-05-21T18:45:53.869Z,24.10
2018-05-21T18:48:21.379Z,24.10
2018-05-21T18:50:48.904Z,24.00
2018-05-21T18:53:16.491Z,24.00
2018-05-21T18:55:44.021Z,24.00
2018-05-21T18:58:11.506Z,23.90
2018-05-21T19:00:39.073Z,23.90
2018-05-21T19:03:07.510Z,23.90
2018-05-21T19:05:35.209Z,23.90
2018-05-21T19:08:02.733Z,23.90
2018-05-21T19:10:30.247Z,23.80
2018-05-21T19:12:58.543Z,23.80
2018-05-21T19:15:26.932Z,23.70
2018-05-21T19:17:54.476Z,23.70
2018-05-21T19:20:22.005Z,23.70
2018-05-21T19:22:50.273Z,23.70
2018-05-21T19:25:18.027Z,23.70
2018-05-21T19:27:45.568Z,23.70
2018-05-21T19:30:13.141Z,23.70
2018-05-21T19:32:40.623Z,23.60
2018-05-21T19:35:08.880Z,23.60
2018-05-21T19:37:36.495Z,23.60
2018-05-21T19:40:04.039Z,23.60
2018-05-21T19:42:31.983Z,23.50
2018-05-21T19:45:00.270Z,23.40
2018-05-21T19:53:01.112Z,23.30
2018-05-21T19:55:28.626Z,23.30
2018-05-21T19:57:56.122Z,23.30
2018-05-21T20:00:23.630Z,23.30
2018-05-21T20:02:51.144Z,23.20
2018-05-21T20:05:18.633Z,23.20
2018-05-21T20:07:46.317Z,23.20
2018-05-21T20:10:13.833Z,23.10
2018-05-21T20:12:41.327Z,23.10
2018-05-21T20:15:09.087Z,23.10
2018-05-21T20:17:36.596Z,23.00
2018-05-21T20:20:04.847Z,23.00
2018-05-21T20:22:33.167Z,22.90
2018-05-21T20:25:00.754Z,22.90
2018-05-21T20:27:28.316Z,22.90
2018-05-21T20:29:55.861Z,22.40
2018-05-21T20:32:23.367Z,21.90
2018-05-21T20:34:51.628Z,21.00
2018-05-21T20:37:19.109Z,21.00
2018-05-21T20:39:47.414Z,20.50
2018-05-21T20:42:15.014Z,20.50
2018-05-21T20:44:42.542Z,20.20
2018-05-21T20:47:10.118Z,20.30
2018-05-21T20:49:37.616Z,20.00
2018-05-21T20:52:05.897Z,19.80
2018-05-21T20:54:33.398Z,19.80
2018-05-21T20:57:00.903Z,19.90
2018-05-21T20:59:29.177Z,20.00
2018-05-21T21:01:57.486Z,20.00
2018-05-21T21:04:25.045Z,20.00
2018-05-21T21:06:52.533Z,20.00
2018-05-21T21:09:20.023Z,20.00
2018-05-21T21:11:48.255Z,19.90
2018-05-21T21:14:15.744Z,19.90
2018-05-21T21:16:43.233Z,19.90
2018-05-21T21:19:11.477Z,19.70
2018-05-21T21:21:38.966Z,19.70
2018-05-21T21:24:06.522Z,19.70
2018-05-21T21:26:34.775Z,19.80
2018-05-21T21:29:02.240Z,19.70
2018-05-21T21:31:29.708Z,19.70
2018-05-21T21:33:57.203Z,19.60
2018-05-21T21:36:24.684Z,19.40
2018-05-21T21:38:52.177Z,19.40
2018-05-21T21:41:20.459Z,19.40
2018-05-21T21:43:48.719Z,19.30
2018-05-21T21:46:16.218Z,19.40
2018-05-21T21:48:43.692Z,19.40
2018-05-21T21:51:11.188Z,19.30
2018-05-21T21:53:38.668Z,19.40
2018-05-21T21:56:06.946Z,19.30
2018-05-21T21:58:34.438Z,19.30
2018-05-21T22:01:01.912Z,19.10
2018-05-21T22:03:29.394Z,19.00
2018-05-21T22:05:56.876Z,19.10
2018-05-21T22:08:25.131Z,19.10
2018-05-21T22:10:52.603Z,19.10
2018-05-21T22:13:20.848Z,19.10
2018-05-21T22:15:48.335Z,19.10
2018-05-21T22:18:16.604Z,19.10
2018-05-21T22:20:44.849Z,19.10
2018-05-21T22:23:12.327Z,19.10
2018-05-21T22:25:40.607Z,19.00
2018-05-21T22:28:08.121Z,18.90
2018-05-21T22:30:35.670Z,19.10
2018-05-21T22:33:03.157Z,19.10
2018-05-21T22:35:30.792Z,19.10
2018-05-21T22:37:58.267Z,19.10
2018-05-21T22:40:25.801Z,19.00
2018-05-21T22:42:53.442Z,19.10
2018-05-21T22:45:20.925Z,19.10
2018-05-21T22:47:48.485Z,19.00
2018-05-21T22:50:16.096Z,19.00
2018-05-21T22:52:44.497Z,18.80
2018-05-21T22:55:12.023Z,18.80
2018-05-21T22:57:39.528Z,18.90
2018-05-21T23:00:07.006Z,18.80
2018-05-21T23:02:34.532Z,18.80
2018-05-21T23:05:02.768Z,18.80
2018-05-21T23:07:30.285Z,18.80
2018-05-21T23:09:57.823Z,18.70
2018-05-21T23:12:25.363Z,18.70
2018-05-21T23:14:53.612Z,18.40
2018-05-21T23:17:21.210Z,18.40
2018-05-21T23:19:49.499Z,18.30
2018-05-21T23:22:16.973Z,18.30
2018-05-21T23:24:44.466Z,18.30
2018-05-21T23:27:14.932Z,18.20
2018-05-21T23:29:42.417Z,18.20
2018-05-21T23:32:09.928Z,18.10
2018-05-21T23:34:38.206Z,18.40
2018-05-21T23:37:06.448Z,18.50
2018-05-21T23:39:34.061Z,18.50
2018-05-21T23:42:01.536Z,18.60
2018-05-21T23:44:29.075Z,18.60
2018-05-21T23:46:56.565Z,18.70
2018-05-21T23:49:24.085Z,18.60
2018-05-21T23:51:52.353Z,18.60
2018-05-21T23:54:20.617Z,18.70
2018-05-21T23:56:48.225Z,18.70
2018-05-21T23:59:15.753Z,18.70
